Time;durP1;ratioP1;P1;durP2;ratioP2;P2;SDS_P1;SDS_P2;PMS_P1;PMS_P2;Temp;Humidity;BMP_temperature;BMP_pressure;BME280_temperature;BME280_humidity;BME280_pressure;Samples;Min_cycle;Max_cycle;Signal;HPM_P1;HPM_P2
2021/09/29 00:01:15;;;;;;;;;11.00;11.00;;;;;13.79;71.17;102311.81;5112430;28;9982;-71
2021/09/29 00:04:10;;;;;;;;;9.75;9.75;;;;;13.77;71.27;102314.91;5113258;28;9837;-71
2021/09/29 00:07:07;;;;;;;;;14.75;13.00;;;;;13.84;71.17;102309.72;5098733;28;9813;-71
2021/09/29 00:10:04;;;;;;;;;12.00;11.25;;;;;13.82;71.15;102312.00;5112213;28;10635;-71
2021/09/29 00:13:00;;;;;;;;;13.25;11.00;;;;;13.76;71.54;102310.47;5098826;28;10019;-71
2021/09/29 00:15:56;;;;;;;;;13.75;13.75;;;;;13.78;71.60;102308.19;5111925;28;9900;-72
2021/09/29 00:18:51;;;;;;;;;12.00;12.00;;;;;13.87;71.49;102295.19;5099064;28;9946;-71
2021/09/29 00:21:47;;;;;;;;;15.25;13.75;;;;;13.79;71.54;102300.69;5115650;28;9909;-71
2021/09/29 00:24:43;;;;;;;;;11.00;11.00;;;;;13.67;71.80;102305.97;5115862;28;10179;-70
2021/09/29 00:27:38;;;;;;;;;11.00;11.00;;;;;13.72;71.68;102301.09;5116218;28;9820;-70
2021/09/29 00:30:38;;;;;;;;;10.25;10.25;;;;;13.71;71.98;102299.47;5102970;28;9843;-71
2021/09/29 00:33:37;;;;;;;;;13.00;13.00;;;;;13.62;72.13;102301.34;5116107;28;9861;-71
2021/09/29 00:36:37;;;;;;;;;12.00;12.00;;;;;13.47;72.73;102305.28;5102440;28;10063;-71
2021/09/29 00:39:33;;;;;;;;;12.75;12.75;;;;;13.66;71.87;102304.34;5115984;28;10062;-71
2021/09/29 00:42:28;;;;;;;;;8.50;8.50;;;;;13.48;72.45;102301.38;5115965;28;9997;-71
2021/09/29 00:45:24;;;;;;;;;12.50;12.50;;;;;13.56;72.64;102308.16;5101858;28;10699;-71
2021/09/29 00:48:19;;;;;;;;;13.25;12.00;;;;;13.47;72.72;102308.06;5116050;28;9998;-71
2021/09/29 00:51:15;;;;;;;;;11.25;11.25;;;;;13.61;72.47;102305.25;5116031;28;10582;-71
2021/09/29 00:54:11;;;;;;;;;11.00;11.00;;;;;13.36;73.33;102309.44;5115978;28;10034;-71
2021/09/29 00:57:07;;;;;;;;;12.25;12.25;;;;;13.36;73.27;102303.88;5115736;28;9976;-70
2021/09/29 01:00:05;;;;;;;;;11.50;11.50;;;;;13.53;72.92;102314.34;5116027;28;10715;-71
2021/09/29 01:03:01;;;;;;;;;14.50;12.00;;;;;13.38;73.05;102309.13;5115816;28;10066;-71
2021/09/29 01:06:01;;;;;;;;;10.00;10.00;;;;;13.42;73.28;102313.75;5115248;28;10048;-71
2021/09/29 01:09:08;;;;;;;;;11.00;11.00;;;;;13.39;73.33;102314.34;5101993;28;10060;-71
2021/09/29 01:12:39;;;;;;;;;11.25;11.25;;;;;13.48;73.31;102317.22;5115670;28;10220;-72
2021/09/29 01:15:45;;;;;;;;;12.00;12.00;;;;;13.47;73.31;102319.19;5115232;28;10658;-71
2021/09/29 01:18:50;;;;;;;;;6.50;6.50;;;;;13.52;73.13;102324.66;5101817;28;10002;-71
2021/09/29 01:21:50;;;;;;;;;11.25;11.25;;;;;13.41;73.16;102317.66;5102415;28;9998;-71
2021/09/29 01:25:02;;;;;;;;;13.00;13.00;;;;;13.42;73.42;102315.69;5101660;28;10208;-71
2021/09/29 01:27:59;;;;;;;;;10.25;10.25;;;;;13.37;73.83;102324.16;5115092;28;10303;-71
2021/09/29 01:30:56;;;;;;;;;9.75;9.75;;;;;13.32;74.19;102325.06;5114176;28;10079;-71
2021/09/29 01:33:53;;;;;;;;;10.50;10.50;;;;;13.40;73.70;102320.75;5114995;28;9979;-71
2021/09/29 01:36:50;;;;;;;;;12.50;12.50;;;;;13.31;73.95;102317.88;5114991;28;9984;-71
2021/09/29 01:39:46;;;;;;;;;10.50;10.50;;;;;13.37;73.98;102316.63;5115230;28;9810;-71
2021/09/29 01:42:41;;;;;;;;;11.50;11.50;;;;;13.40;73.60;102316.00;5101285;28;10048;-71
2021/09/29 01:45:38;;;;;;;;;11.75;11.75;;;;;13.32;74.13;102319.50;5098860;28;9980;-71
2021/09/29 01:48:21;;;;;;;;;13.00;11.25;;;;;13.26;74.16;102317.97;5099362;28;10214;-71
2021/09/29 01:50:55;;;;;;;;;9.75;9.00;;;;;13.36;73.69;102328.88;5115160;28;10927;-71
2021/09/29 01:53:54;;;;;;;;;12.50;12.00;;;;;13.36;73.87;102320.56;5101039;28;10055;-71
2021/09/29 01:56:50;;;;;;;;;17.25;16.25;;;;;13.14;74.79;102325.97;5114591;28;10135;-71
2021/09/29 01:59:47;;;;;;;;;13.25;11.00;;;;;13.21;74.42;102321.69;5114674;28;9865;-71
2021/09/29 02:02:44;;;;;;;;;11.50;11.50;;;;;13.26;74.29;102326.31;5113332;28;9898;-71
2021/09/29 02:05:39;;;;;;;;;12.00;12.00;;;;;13.34;74.21;102331.97;5100720;28;10080;-72
2021/09/29 02:08:35;;;;;;;;;10.50;10.50;;;;;13.11;74.87;102332.97;5114835;28;10817;-71
2021/09/29 02:11:31;;;;;;;;;13.00;13.00;;;;;13.07;75.04;102327.22;5100828;28;9991;-71
2021/09/29 02:14:26;;;;;;;;;16.25;13.50;;;;;12.99;75.76;102327.09;5114311;28;10159;-70
2021/09/29 02:17:22;;;;;;;;;11.00;11.00;;;;;12.97;75.49;102335.75;5114154;28;10178;-71
2021/09/29 02:20:18;;;;;;;;;10.50;10.50;;;;;13.17;75.40;102333.69;5113924;28;10227;-70
2021/09/29 02:22:45;;;;;;;;;11.00;11.00;;;;;13.08;75.50;102337.19;5115673;28;10225;-70
2021/09/29 02:25:41;;;;;;;;;9.00;9.00;;;;;13.20;75.10;102341.44;5100695;28;10200;-71
2021/09/29 02:28:36;;;;;;;;;10.00;10.00;;;;;13.02;76.15;102332.84;5114885;28;10131;-71
2021/09/29 02:31:33;;;;;;;;;11.00;11.00;;;;;13.07;75.67;102338.31;5114071;28;10122;-71
2021/09/29 02:34:29;;;;;;;;;9.00;9.00;;;;;12.93;76.36;102347.78;5114103;28;10058;-71
2021/09/29 02:37:24;;;;;;;;;11.00;9.75;;;;;13.06;76.05;102347.78;5113987;28;10193;-71
2021/09/29 02:40:20;;;;;;;;;11.00;10.00;;;;;13.13;75.73;102352.13;5114001;28;10115;-71
2021/09/29 02:43:16;;;;;;;;;10.75;10.75;;;;;12.88;76.72;102345.94;5113748;28;10171;-71
2021/09/29 02:46:11;;;;;;;;;10.50;10.50;;;;;13.09;75.79;102343.56;5113460;28;10046;-71
2021/09/29 02:49:08;;;;;;;;;9.00;9.00;;;;;13.05;76.32;102353.66;5113702;28;10188;-71
2021/09/29 02:51:36;;;;;;;;;11.25;10.50;;;;;12.99;76.30;102357.66;5114501;28;10022;-71
2021/09/29 02:54:32;;;;;;;;;10.00;9.75;;;;;13.08;76.03;102359.41;5113595;28;10045;-71
2021/09/29 02:57:28;;;;;;;;;9.50;9.50;;;;;13.14;76.02;102359.31;5099939;28;10134;-71
2021/09/29 03:00:23;;;;;;;;;10.00;10.00;;;;;13.08;75.87;102362.19;5113882;27;9977;-70
2021/09/29 03:03:20;;;;;;;;;11.00;11.00;;;;;13.04;76.17;102358.38;5105061;28;10028;-71
2021/09/29 03:06:15;;;;;;;;;10.75;10.25;;;;;13.00;76.25;102365.69;5113233;28;10078;-70
2021/09/29 03:09:11;;;;;;;;;12.25;12.25;;;;;12.89;76.82;102369.78;5113232;28;10242;-70
2021/09/29 03:12:07;;;;;;;;;15.00;15.00;;;;;12.93;76.78;102376.34;5113112;28;11052;-70
2021/09/29 03:15:03;;;;;;;;;10.25;10.25;;;;;13.02;76.62;102376.47;5099723;28;10205;-70
2021/09/29 03:17:59;;;;;;;;;12.25;12.25;;;;;12.96;76.85;102380.50;5099519;28;10309;-70
2021/09/29 03:20:54;;;;;;;;;9.50;9.50;;;;;12.90;76.99;102381.72;5112272;28;10053;-71
2021/09/29 03:23:50;;;;;;;;;10.75;10.50;;;;;12.85;77.30;102385.41;5112991;28;10071;-71
2021/09/29 03:26:32;;;;;;;;;9.00;9.00;;;;;12.89;77.53;102389.22;5112988;28;10071;-71
2021/09/29 03:29:00;;;;;;;;;10.50;10.50;;;;;12.85;77.64;102387.34;5113950;28;10197;-70
2021/09/29 03:31:56;;;;;;;;;11.00;11.00;;;;;12.78;77.84;102393.28;5099024;28;10190;-70
2021/09/29 03:34:51;;;;;;;;;9.25;9.25;;;;;12.87;77.67;102393.41;5112744;28;10183;-70
2021/09/29 03:37:47;;;;;;;;;12.50;12.50;;;;;12.91;77.40;102392.50;5112491;28;10064;-71
2021/09/29 03:40:42;;;;;;;;;8.00;6.25;;;;;12.74;78.13;102393.09;5112945;28;10375;-70
2021/09/29 03:43:38;;;;;;;;;11.75;11.75;;;;;12.61;79.10;102390.28;5098862;28;10389;-70
2021/09/29 03:46:34;;;;;;;;;14.25;13.75;;;;;12.43;79.57;102401.13;5111220;28;10377;-70
2021/09/29 03:49:29;;;;;;;;;15.25;12.50;;;;;12.58;78.87;102402.00;5098640;28;10359;-70
2021/09/29 03:52:25;;;;;;;;;11.75;11.75;;;;;12.64;78.83;102407.13;5112124;28;10430;-70
2021/09/29 03:55:22;;;;;;;;;12.00;12.00;;;;;12.40;79.50;102404.47;5111767;28;10521;-70
2021/09/29 03:57:49;;;;;;;;;12.00;12.00;;;;;12.58;79.24;102405.59;5113364;28;10493;-70
2021/09/29 04:00:18;;;;;;;;;11.25;11.25;;;;;12.55;79.22;102402.56;5113527;28;10478;-69
2021/09/29 04:03:13;;;;;;;;;14.00;14.00;;;;;12.48;79.13;102401.00;5112429;28;10364;-70
2021/09/29 04:06:09;;;;;;;;;16.75;16.25;;;;;12.46;79.22;102400.50;5111737;28;10374;-69
2021/09/29 04:09:05;;;;;;;;;11.25;11.25;;;;;12.56;79.08;102398.66;5112368;28;10663;-69
2021/09/29 04:12:00;;;;;;;;;15.25;15.25;;;;;12.61;78.96;102396.66;5110519;28;10444;-69
2021/09/29 04:14:56;;;;;;;;;15.50;15.50;;;;;12.44;79.50;102404.72;5098607;28;10556;-69
2021/09/29 04:17:51;;;;;;;;;12.25;12.25;;;;;12.55;79.21;102399.81;5111665;28;10684;-70
2021/09/29 04:20:47;;;;;;;;;25.25;19.25;;;;;12.68;78.67;102401.81;5096883;28;10378;-70
2021/09/29 04:23:43;;;;;;;;;13.25;13.25;;;;;12.61;78.86;102409.69;5111971;28;10600;-70
2021/09/29 04:26:39;;;;;;;;;18.25;16.50;;;;;12.61;78.78;102410.53;5112231;28;10438;-70
2021/09/29 04:29:08;;;;;;;;;16.75;16.75;;;;;12.58;78.99;102416.69;5112878;28;10378;-70
2021/09/29 04:32:05;;;;;;;;;23.50;23.50;;;;;12.68;78.77;102410.13;5097019;28;10312;-69
2021/09/29 04:35:01;;;;;;;;;16.50;16.50;;;;;12.68;78.61;102418.47;5096271;28;10679;-70
2021/09/29 04:37:56;;;;;;;;;17.00;17.00;;;;;12.53;78.98;102417.59;5112154;28;10399;-69
2021/09/29 04:40:52;;;;;;;;;16.75;16.75;;;;;12.70;78.67;102424.53;5098291;28;11169;-71
2021/09/29 04:43:20;;;;;;;;;16.75;16.75;;;;;12.87;78.05;102422.00;5113148;28;10377;-71
2021/09/29 04:45:48;;;;;;;;;16.00;16.00;;;;;12.95;77.73;102431.59;5113133;28;10295;-71
2021/09/29 04:48:18;;;;;;;;;15.50;15.50;;;;;12.90;77.79;102431.69;5113145;28;10228;-71
2021/09/29 04:50:46;;;;;;;;;18.00;18.00;;;;;13.05;77.52;102439.75;5113116;28;10107;-72
2021/09/29 04:53:14;;;;;;;;;20.25;18.50;;;;;13.22;76.74;102431.69;5113123;28;10316;-72
2021/09/29 04:55:42;;;;;;;;;18.75;18.25;;;;;13.26;77.04;102431.88;5095004;28;10337;-71
2021/09/29 04:58:10;;;;;;;;;19.75;19.50;;;;;13.09;77.08;102440.78;5113165;28;10331;-72
2021/09/29 05:00:38;;;;;;;;;16.75;16.75;;;;;13.30;76.07;102435.72;5078203;28;10302;-72
2021/09/29 05:03:07;;;;;;;;;19.25;19.25;;;;;13.24;76.21;102436.94;5095116;28;10394;-71
2021/09/29 05:05:36;;;;;;;;;20.75;17.75;;;;;13.21;76.41;102446.72;5113566;28;10311;-72
2021/09/29 05:08:06;;;;;;;;;19.50;19.00;;;;;13.22;76.43;102450.31;5098750;28;10249;-72
2021/09/29 05:10:54;;;;;;;;;16.00;16.00;;;;;13.34;75.78;102443.16;5099957;28;10167;-72
2021/09/29 05:13:30;;;;;;;;;18.25;17.75;;;;;13.41;75.59;102445.50;5116529;28;10285;-73
2021/09/29 05:15:58;;;;;;;;;14.75;14.75;;;;;13.53;75.50;102454.16;5115343;28;9983;-72
2021/09/29 05:18:54;;;;;;;;;15.00;15.00;;;;;13.41;75.46;102464.94;5114988;28;10046;-70
2021/09/29 05:21:49;;;;;;;;;12.50;12.50;;;;;13.24;75.48;102465.53;5114865;28;10141;-72
2021/09/29 05:24:45;;;;;;;;;12.50;12.00;;;;;13.26;75.59;102466.06;5114922;28;10222;-71
2021/09/29 05:27:41;;;;;;;;;16.50;16.50;;;;;13.50;75.10;102456.75;5114180;28;10288;-70
2021/09/29 05:30:36;;;;;;;;;12.75;12.75;;;;;13.37;75.15;102475.03;5113389;27;10262;-69
2021/09/29 05:33:32;;;;;;;;;17.00;16.25;;;;;13.44;74.73;102478.25;5109062;28;10117;-71
2021/09/29 05:36:28;;;;;;;;;17.00;17.00;;;;;13.38;74.75;102470.31;5114832;28;10985;-71
2021/09/29 05:39:23;;;;;;;;;17.25;17.25;;;;;13.48;74.36;102458.97;5114595;28;10120;-71
2021/09/29 05:41:55;;;;;;;;;16.25;16.25;;;;;13.27;74.19;102472.47;5098498;28;10185;-71
2021/09/29 05:44:24;;;;;;;;;11.50;11.00;;;;;13.23;74.42;102468.63;5116059;28;10088;-71
2021/09/29 05:46:52;;;;;;;;;16.25;16.25;;;;;13.22;73.96;102478.09;5081192;28;10014;-72
2021/09/29 05:49:20;;;;;;;;;16.50;14.25;;;;;13.32;73.58;102478.72;5097928;28;10275;-71
2021/09/29 05:51:48;;;;;;;;;15.50;15.50;;;;;13.45;73.65;102470.72;5097716;28;10114;-71
2021/09/29 05:54:17;;;;;;;;;12.75;12.75;;;;;13.34;73.00;102481.19;5115683;28;10093;-71
2021/09/29 05:56:44;;;;;;;;;17.00;15.50;;;;;13.61;72.35;102485.97;5097580;28;10108;-71
2021/09/29 05:59:12;;;;;;;;;11.25;11.25;;;;;13.61;72.26;102488.75;5080968;28;10328;-71
2021/09/29 06:01:40;;;;;;;;;12.25;12.25;;;;;13.58;71.74;102494.94;5115594;28;9946;-71
2021/09/29 06:04:10;;;;;;;;;12.75;12.75;;;;;13.49;71.77;102493.97;5097231;28;10103;-72
2021/09/29 06:06:38;;;;;;;;;6.00;6.00;;;;;13.39;71.81;102488.63;5097001;28;10150;-72
2021/09/29 06:09:08;;;;;;;;;12.25;12.25;;;;;13.61;71.62;102495.13;5115473;28;9915;-72
2021/09/29 06:11:36;;;;;;;;;15.25;15.25;;;;;13.44;71.71;102500.47;5115310;28;9956;-73
2021/09/29 06:14:06;;;;;;;;;14.50;14.50;;;;;13.64;71.00;102502.84;5096107;28;10097;-72
2021/09/29 06:17:12;;;;;;;;;12.00;11.75;;;;;13.56;71.03;102505.53;5112166;28;10001;-72
2021/09/29 06:20:09;;;;;;;;;13.75;13.75;;;;;13.81;70.47;102515.34;5102614;27;10205;-71
2021/09/29 06:22:38;;;;;;;;;16.25;16.25;;;;;13.60;70.66;102512.13;5104830;28;10018;-72
2021/09/29 06:25:07;;;;;;;;;17.50;17.50;;;;;13.51;70.76;102513.97;5097134;28;10222;-71
2021/09/29 06:27:35;;;;;;;;;12.75;12.75;;;;;13.72;70.81;102514.41;5094485;28;10873;-72
2021/09/29 06:30:03;;;;;;;;;13.00;13.00;;;;;13.44;71.08;102521.91;5116219;27;10929;-73
2021/09/29 06:32:45;;;;;;;;;15.00;15.00;;;;;13.47;70.85;102518.50;5119495;27;11026;-71
2021/09/29 06:35:41;;;;;;;;;17.25;14.75;;;;;13.75;70.42;102528.53;5085244;28;10017;-72
2021/09/29 06:38:10;;;;;;;;;13.50;13.50;;;;;13.83;69.85;102524.19;5084751;28;10147;-71
2021/09/29 06:41:06;;;;;;;;;12.75;12.75;;;;;14.00;69.61;102529.13;5093375;28;9836;-72
2021/09/29 06:43:47;;;;;;;;;14.00;13.50;;;;;13.98;69.22;102529.44;5104161;28;10026;-72
2021/09/29 06:46:43;;;;;;;;;15.25;15.25;;;;;14.14;68.51;102522.44;5079563;28;9923;-72
2021/09/29 06:49:38;;;;;;;;;17.25;17.00;;;;;14.37;68.09;102534.47;5110599;28;10191;-72
2021/09/29 06:52:35;;;;;;;;;14.00;14.00;;;;;14.62;67.50;102527.53;5098321;28;10075;-72
2021/09/29 06:55:30;;;;;;;;;12.50;12.50;;;;;14.48;67.31;102518.38;5109076;27;9744;-73
2021/09/29 06:58:26;;;;;;;;;17.00;17.00;;;;;14.94;66.55;102534.00;5085716;28;9917;-72
2021/09/29 07:01:22;;;;;;;;;9.50;9.25;;;;;15.05;66.04;102529.84;5098562;28;9501;-73
2021/09/29 07:04:18;;;;;;;;;12.00;12.00;;;;;14.65;66.32;102526.91;5112759;28;9490;-73
2021/09/29 07:07:13;;;;;;;;;8.50;8.50;;;;;14.86;66.39;102527.22;5113426;28;9745;-73
2021/09/29 07:09:54;;;;;;;;;15.00;13.75;;;;;14.97;65.47;102544.53;5113506;28;9516;-72
2021/09/29 07:12:50;;;;;;;;;14.50;14.50;;;;;14.81;65.61;102534.91;5113281;28;9542;-73
2021/09/29 07:15:46;;;;;;;;;15.00;15.00;;;;;15.02;65.77;102531.28;5112895;28;9614;-73
2021/09/29 07:18:42;;;;;;;;;20.00;17.25;;;;;15.26;64.71;102528.19;5099344;28;9362;-73
2021/09/29 07:21:38;;;;;;;;;17.75;15.25;;;;;15.20;64.58;102539.78;5112905;28;9540;-74
2021/09/29 07:24:34;;;;;;;;;13.33;13.33;;;;;14.85;65.49;102535.91;5112306;28;9480;-74
2021/09/29 07:27:30;;;;;;;;;16.75;16.75;;;;;15.08;65.15;102534.78;5112556;28;9461;-74
2021/09/29 07:30:26;;;;;;;;;16.00;15.25;;;;;14.85;65.22;102530.34;5111545;28;9460;-74
2021/09/29 07:33:22;;;;;;;;;15.00;15.00;;;;;15.07;65.16;102544.28;5110987;28;9664;-73
2021/09/29 07:36:18;;;;;;;;;13.00;13.00;;;;;15.02;65.19;102530.47;5111712;28;9703;-73
2021/09/29 07:39:13;;;;;;;;;14.50;14.50;;;;;15.17;64.96;102541.22;5103298;28;9429;-73
2021/09/29 07:42:09;;;;;;;;;13.00;13.00;;;;;15.58;63.99;102535.44;5132205;27;9433;-73
2021/09/29 07:45:07;;;;;;;;;18.00;17.33;;;;;15.80;63.28;102533.75;5105640;27;9461;-73
2021/09/29 07:47:35;;;;;;;;;16.00;16.00;;;;;15.74;62.75;102544.22;5113517;28;9376;-73
2021/09/29 07:50:06;;;;;;;;;16.00;16.00;;;;;15.72;62.13;102540.09;5091158;28;9348;-73
2021/09/29 07:53:02;;;;;;;;;15.67;15.67;;;;;15.68;62.68;102547.47;5098183;28;9221;-73
2021/09/29 07:55:32;;;;;;;;;17.67;17.67;;;;;15.51;62.64;102545.38;5093178;28;9322;-73
2021/09/29 07:58:27;;;;;;;;;19.00;19.00;;;;;15.81;62.80;102547.38;5092872;27;9399;-73
2021/09/29 08:01:23;;;;;;;;;15.67;15.67;;;;;15.75;62.16;102553.41;5098105;28;9456;-74
2021/09/29 08:04:05;;;;;;;;;15.33;15.33;;;;;15.47;62.42;102553.56;5106865;28;9390;-73
2021/09/29 08:07:00;;;;;;;;;15.67;15.67;;;;;15.41;62.94;102548.44;5097502;28;9305;-73
2021/09/29 08:09:42;;;;;;;;;16.00;16.00;;;;;15.28;63.07;102558.53;5110637;28;9414;-73
2021/09/29 08:12:38;;;;;;;;;16.67;16.67;;;;;15.41;63.41;102554.84;5100590;28;9366;-73
2021/09/29 08:15:33;;;;;;;;;18.00;17.67;;;;;15.25;63.41;102543.25;5111224;27;9469;-74
2021/09/29 08:18:29;;;;;;;;;20.33;20.33;;;;;15.58;63.17;102551.34;5119911;28;9299;-73
2021/09/29 08:21:29;;;;;;;;;18.75;18.75;;;;;15.87;62.69;102550.00;5091546;28;9380;-74
2021/09/29 08:24:35;;;;;;;;;17.50;17.50;;;;;15.76;61.86;102553.09;5091979;28;9659;-74
2021/09/29 08:27:58;;;;;;;;;17.33;17.33;;;;;16.17;61.46;102559.47;5091553;28;9524;-73
2021/09/29 08:34:13;;;;;;;;;24.33;22.00;;;;;16.12;59.79;102550.13;5111074;28;9598;-74
2021/09/29 08:40:16;;;;;;;;;34.25;32.75;;;;;16.38;60.17;102563.31;5113034;28;9237;-73
2021/09/29 08:43:16;;;;;;;;;32.00;30.50;;;;;16.37;59.03;102565.28;5117016;28;9522;-74
2021/09/29 08:46:19;;;;;;;;;24.33;22.67;;;;;16.65;58.86;102563.03;5114308;28;9703;-73
2021/09/29 09:17:05;;;;;;;;;18.33;18.33;;;;;16.44;60.36;102562.03;5116705;28;9236;-72
2021/09/29 09:19:36;;;;;;;;;27.33;26.67;;;;;16.20;59.54;102559.66;5116591;28;9173;-73
2021/09/29 09:22:06;;;;;;;;;18.00;18.00;;;;;16.01;60.65;102564.69;5116596;28;9222;-73
2021/09/29 09:24:36;;;;;;;;;27.75;27.75;;;;;15.52;61.16;102566.56;5116505;28;8991;-72
2021/09/29 09:27:14;;;;;;;;;22.00;22.00;;;;;15.55;61.31;102560.31;5098529;28;9758;-73
2021/09/29 09:29:48;;;;;;;;;18.75;18.75;;;;;15.71;62.61;102569.13;5116270;28;9332;-73
2021/09/29 09:32:18;;;;;;;;;19.50;19.50;;;;;15.98;60.93;102566.16;5116425;28;9574;-72
2021/09/29 09:34:46;;;;;;;;;19.67;18.33;;;;;15.88;60.81;102560.03;5116099;28;9627;-72
2021/09/29 09:37:16;;;;;;;;;16.00;15.00;;;;;15.83;60.17;102552.63;5116055;28;10002;-72
2021/09/29 09:39:44;;;;;;;;;16.00;15.33;;;;;16.09;60.25;102555.50;5116279;28;9362;-72
2021/09/29 09:42:14;;;;;;;;;21.33;20.33;;;;;16.39;60.27;102560.19;5116345;28;9371;-72
2021/09/29 09:44:42;;;;;;;;;13.67;13.67;;;;;16.00;59.38;102565.81;5098292;28;9174;-72
2021/09/29 09:47:14;;;;;;;;;14.00;14.00;;;;;16.03;59.69;102554.03;5116034;28;9138;-72
2021/09/29 09:49:55;;;;;;;;;14.67;14.67;;;;;15.98;59.10;102559.75;5097983;28;9126;-72
2021/09/29 09:52:49;;;;;;;;;14.00;14.00;;;;;15.87;59.79;102555.59;5096855;28;9142;-73
2021/09/29 09:55:19;;;;;;;;;19.33;17.67;;;;;16.26;61.07;102550.00;5113132;28;9241;-73
2021/09/29 09:57:56;;;;;;;;;16.67;16.67;;;;;16.44;62.43;102559.22;5115663;28;9269;-71
2021/09/29 10:00:27;;;;;;;;;17.00;17.00;;;;;16.51;58.37;102553.97;5115731;28;9073;-71
2021/09/29 10:03:00;;;;;;;;;14.00;14.00;;;;;16.86;57.70;102560.44;5115670;28;9327;-71
2021/09/29 10:05:31;;;;;;;;;15.00;15.00;;;;;16.97;57.72;102552.56;5115558;28;9085;-72
2021/09/29 10:08:13;;;;;;;;;13.33;13.33;;;;;16.91;57.37;102553.88;5115445;28;9913;-73
2021/09/29 10:11:20;;;;;;;;;14.00;14.00;;;;;16.86;55.92;102556.81;5115504;28;8999;-73
2021/09/29 10:26:33;;;;;;;;;14.50;13.75;;;;;17.12;54.35;102551.25;5112233;28;8854;-73
2021/09/29 10:29:12;;;;;;;;;16.00;16.00;;;;;16.99;55.56;102558.63;5110555;28;9841;-73
2021/09/29 10:32:05;;;;;;;;;20.33;20.33;;;;;17.02;55.37;102560.75;5108881;28;8931;-73
2021/09/29 10:41:24;;;;;;;;;17.25;17.25;;;;;19.37;54.75;102541.56;5112766;28;9054;-72
2021/09/29 10:44:05;;;;;;;;;9.00;8.50;;;;;18.81;48.88;102536.34;5115214;28;8829;-72
2021/09/29 10:49:51;;;;;;;;;20.00;19.75;;;;;19.64;50.67;102531.75;5112102;28;8875;-72
2021/09/29 11:30:06;;;;;;;;;8.75;8.75;;;;;18.98;47.71;102534.53;5107658;28;8840;-73
2021/09/29 11:36:09;;;;;;;;;9.50;9.25;;;;;18.46;48.97;102537.72;5112074;28;8925;-72
2021/09/29 12:10:36;;;;;;;;;1.25;1.25;;;;;18.65;47.33;102523.25;5101784;28;8830;-72
2021/09/29 12:13:18;;;;;;;;;8.75;8.75;;;;;18.72;47.49;102520.75;5113082;28;8831;-73
2021/09/29 12:16:00;;;;;;;;;8.00;8.00;;;;;18.68;47.20;102525.41;5116119;28;8838;-72
2021/09/29 12:18:58;;;;;;;;;6.25;6.25;;;;;18.82;45.42;102523.94;5115927;28;8854;-74
2021/09/29 12:21:58;;;;;;;;;5.25;5.25;;;;;18.11;46.57;102529.53;5102529;28;8827;-73
2021/09/29 12:31:29;;;;;;;;;10.00;10.00;;;;;17.88;49.34;102523.41;5096990;28;8871;-73
2021/09/29 12:34:15;;;;;;;;;10.00;10.00;;;;;18.26;48.88;102533.75;5106189;28;8827;-73
2021/09/29 12:37:11;;;;;;;;;12.75;12.00;;;;;18.40;47.66;102523.09;5114046;27;8853;-73
2021/09/29 12:40:07;;;;;;;;;10.25;10.25;;;;;19.06;46.83;102517.63;5099376;28;8825;-72
2021/09/29 12:43:15;;;;;;;;;14.50;11.00;;;;;19.25;46.82;102527.53;5108146;28;8930;-72
2021/09/29 12:45:47;;;;;;;;;11.00;11.00;;;;;19.32;45.54;102523.00;5115624;28;8802;-71
2021/09/29 12:48:44;;;;;;;;;9.00;9.00;;;;;20.08;44.54;102540.41;5087382;28;8828;-71
2021/09/29 12:51:56;;;;;;;;;9.50;9.50;;;;;19.68;44.17;102527.88;5111476;28;9617;-72
2021/09/29 12:54:52;;;;;;;;;10.50;10.50;;;;;19.30;44.27;102541.31;5115681;28;9041;-73
2021/09/29 12:57:48;;;;;;;;;10.25;10.25;;;;;19.49;44.11;102546.41;5115680;28;8956;-73
2021/09/29 13:00:16;;;;;;;;;12.00;11.50;;;;;19.54;43.82;102540.56;5116071;28;8922;-71
2021/09/29 13:03:13;;;;;;;;;9.50;9.50;;;;;19.85;42.90;102537.22;5115662;28;8843;-71
2021/09/29 13:06:10;;;;;;;;;9.25;9.25;;;;;20.10;42.17;102530.47;5115434;28;8839;-72
2021/09/29 13:09:05;;;;;;;;;8.00;8.00;;;;;19.22;43.15;102542.22;5115077;28;8841;-74
2021/09/29 13:12:01;;;;;;;;;8.75;8.75;;;;;18.06;44.78;102538.94;5115490;28;8862;-73
2021/09/29 13:14:57;;;;;;;;;8.50;8.50;;;;;18.13;44.67;102534.81;5114798;28;8902;-73
2021/09/29 13:17:54;;;;;;;;;8.75;8.75;;;;;17.79;45.53;102539.44;5111560;28;8833;-73
2021/09/29 13:21:14;;;;;;;;;12.50;12.50;;;;;18.34;45.66;102535.66;5096115;28;8824;-73
2021/09/29 13:24:16;;;;;;;;;12.50;12.50;;;;;18.81;45.58;102550.34;5095876;28;8867;-73
2021/09/29 13:38:51;;;;;;;;;13.75;12.25;;;;;18.51;45.15;102543.94;5116073;28;8834;-75
2021/09/29 13:41:52;;;;;;;;;13.25;13.25;;;;;18.50;45.27;102545.13;5098098;28;8948;-73
2021/09/29 13:44:47;;;;;;;;;12.50;12.50;;;;;18.68;44.43;102548.63;5115021;28;8925;-73
2021/09/29 13:47:15;;;;;;;;;11.75;11.75;;;;;18.62;44.32;102544.34;5115665;28;8833;-73
2021/09/29 13:49:44;;;;;;;;;11.25;11.25;;;;;18.51;44.25;102541.16;5115760;28;8856;-74
2021/09/29 13:52:16;;;;;;;;;10.00;10.00;;;;;18.41;44.63;102546.34;5115840;28;8951;-73
2021/09/29 13:54:44;;;;;;;;;9.25;9.25;;;;;18.30;44.54;102548.69;5115880;28;9601;-73
2021/09/29 14:30:17;;;;;;;;;11.00;11.00;;;;;18.45;54.98;102548.09;5114769;28;8874;-74
2021/09/29 14:33:27;;;;;;;;;11.75;11.75;;;;;18.45;51.04;102562.13;5113869;28;8843;-74
2021/09/29 14:36:23;;;;;;;;;14.50;13.75;;;;;17.82;48.96;102563.94;5091801;28;8815;-74
2021/09/29 14:39:18;;;;;;;;;11.25;11.25;;;;;17.73;48.97;102568.75;5107500;28;8818;-74
2021/09/29 14:42:14;;;;;;;;;15.50;15.50;;;;;17.21;48.90;102572.44;5102946;27;8820;-74
2021/09/29 14:45:10;;;;;;;;;17.50;17.50;;;;;16.77;49.77;102578.34;5113613;28;8819;-74
2021/09/29 14:48:06;;;;;;;;;17.67;17.00;;;;;16.57;50.20;102574.22;5113805;28;9698;-73
2021/09/29 14:50:50;;;;;;;;;14.33;14.33;;;;;16.47;50.54;102572.53;5113093;28;9071;-74
2021/09/29 14:53:49;;;;;;;;;15.00;15.00;;;;;16.32;50.75;102584.16;5093393;28;9309;-73
2021/09/29 14:56:19;;;;;;;;;17.00;17.00;;;;;15.93;51.36;102580.25;5094061;28;9229;-73
2021/09/29 14:58:46;;;;;;;;;16.33;16.33;;;;;15.93;51.60;102573.84;5094305;28;9172;-73
2021/09/29 15:01:15;;;;;;;;;20.00;20.00;;;;;15.74;51.93;102574.91;5076282;28;10029;-73
2021/09/29 15:03:47;;;;;;;;;16.67;16.67;;;;;15.79;52.58;102579.50;5094170;28;9408;-73
2021/09/29 15:06:15;;;;;;;;;14.67;14.67;;;;;15.72;52.27;102582.78;5093614;28;9091;-73
2021/09/29 15:08:43;;;;;;;;;12.33;12.33;;;;;15.75;52.56;102581.31;5094240;28;9164;-72
2021/09/29 15:11:12;;;;;;;;;5.00;5.00;;;;;15.70;52.51;102584.22;5076306;28;10126;-73
2021/09/29 15:13:46;;;;;;;;;8.33;8.33;;;;;15.51;52.33;102588.03;5094233;28;9064;-73
2021/09/29 15:16:30;;;;;;;;;8.67;8.67;;;;;15.56;52.62;102596.28;5076309;28;9165;-73
2021/09/29 15:30:28;;;;;;;;;8.67;7.33;;;;;15.21;53.03;102617.50;5121438;27;9939;-73
2021/09/29 15:52:31;;;;;;;;;13.75;13.00;;;;;14.76;53.98;102635.28;5112440;28;9576;-72
2021/09/29 16:01:38;;;;;;;;;12.25;12.25;;;;;14.60;54.83;102638.41;5112377;28;9579;-73
2021/09/29 16:11:06;;;;;;;;;16.50;16.50;;;;;14.53;54.99;102649.13;5113405;28;9940;-73
2021/09/29 16:35:49;;;;;;;;;18.25;18.25;;;;;13.98;56.54;102681.63;5105922;28;10011;-72
2021/09/29 16:38:17;;;;;;;;;21.50;21.00;;;;;14.07;56.87;102688.97;5113454;28;10072;-72
2021/09/29 16:41:05;;;;;;;;;21.00;21.00;;;;;13.92;57.09;102692.03;5093144;28;10100;-72
2021/09/29 16:43:33;;;;;;;;;18.25;18.25;;;;;13.83;57.18;102689.13;5075089;28;10169;-72
2021/09/29 16:46:01;;;;;;;;;19.50;18.00;;;;;13.85;57.35;102686.84;5091343;28;10238;-72
2021/09/29 16:48:32;;;;;;;;;19.00;19.00;;;;;13.71;57.08;102690.72;5092879;28;10065;-72
2021/09/29 16:51:20;;;;;;;;;19.50;19.50;;;;;13.73;57.58;102692.09;5093473;28;10242;-72
2021/09/29 16:54:07;;;;;;;;;13.25;13.25;;;;;13.71;58.26;102690.72;5090568;28;10129;-73